Time;durP1;ratioP1;P1;durP2;ratioP2;P2;SDS_P1;SDS_P2;PMS_P1;PMS_P2;Temp;Humidity;BMP_temperature;BMP_pressure;BME280_temperature;BME280_humidity;BME280_pressure;Samples;Min_cycle;Max_cycle;Signal;HPM_P1;HPM_P2
2022/11/04 00:01:39;;;;;;;1.95;1.85;;;;;;;;;;5100027;28;20623;-63
2022/11/04 00:04:09;;;;;;;1.88;1.77;;;;;;;;;;5099608;28;20204;-63
2022/11/04 00:06:36;;;;;;;1.60;1.50;;;;;;;;;;5099966;28;20272;-63
2022/11/04 00:09:05;;;;;;;1.75;1.65;;;;;;;;;;5099801;28;20238;-63
2022/11/04 00:14:18;;;;;;;1.80;1.70;;;;;;;;;;5098770;28;20237;-63
2022/11/04 00:28:41;;;;;;;1.70;1.60;;;;;;;;;;5099639;28;20238;-63
2022/11/04 00:30:53;;;;;;;2.05;1.95;;;;;;;;;;5067785;28;20238;-63
2022/11/04 00:33:26;;;;;;;1.70;1.60;;;;;;;;;;5099004;28;20589;-64
2022/11/04 00:35:56;;;;;;;1.80;1.70;;;;;;;;;;5098540;28;20547;-63
2022/11/04 00:38:24;;;;;;;1.65;1.55;;;;;;;;;;5099628;28;20210;-63
2022/11/04 00:40:52;;;;;;;1.70;1.60;;;;;;;;;;5099393;28;20247;-63
2022/11/04 00:43:19;;;;;;;1.85;1.70;;;;;;;;;;5098158;28;20295;-63
2022/11/04 00:45:47;;;;;;;1.80;1.70;;;;;;;;;;5099327;28;20203;-64
2022/11/04 00:48:15;;;;;;;1.98;1.88;;;;;;;;;;5098925;28;20292;-64
2022/11/04 00:50:43;;;;;;;2.00;1.90;;;;;;;;;;5099469;28;20210;-64
2022/11/04 00:53:12;;;;;;;1.80;1.70;;;;;;;;;;5099436;28;20203;-64
2022/11/04 00:55:39;;;;;;;2.25;2.05;;;;;;;;;;5099374;28;20199;-63
2022/11/04 00:58:07;;;;;;;1.83;1.73;;;;;;;;;;5099041;28;20258;-62
2022/11/04 01:00:35;;;;;;;2.10;2.00;;;;;;;;;;5098855;28;20298;-63
2022/11/04 01:03:03;;;;;;;1.67;1.58;;;;;;;;;;5099280;28;20580;-63
2022/11/04 01:05:31;;;;;;;2.13;2.00;;;;;;;;;;5099063;28;20218;-64
2022/11/04 01:07:58;;;;;;;2.13;1.95;;;;;;;;;;5099326;28;20327;-64
2022/11/04 01:10:27;;;;;;;1.88;1.77;;;;;;;;;;5097681;28;20210;-63
2022/11/04 01:12:55;;;;;;;2.42;1.92;;;;;;;;;;5098982;28;20269;-63
2022/11/04 01:15:23;;;;;;;2.30;2.10;;;;;;;;;;5099082;28;20214;-65
2022/11/04 01:17:51;;;;;;;2.15;1.95;;;;;;;;;;5098990;28;20243;-64
2022/11/04 01:20:19;;;;;;;2.00;1.90;;;;;;;;;;5098656;28;20239;-63
2022/11/04 01:22:47;;;;;;;2.20;2.05;;;;;;;;;;5098786;28;20203;-64
2022/11/04 01:25:14;;;;;;;1.52;1.40;;;;;;;;;;5098123;28;20211;-63
2022/11/04 01:27:43;;;;;;;1.90;1.80;;;;;;;;;;5098864;28;20207;-64
2022/11/04 01:30:12;;;;;;;2.13;1.90;;;;;;;;;;5097570;28;20221;-64
2022/11/04 01:32:40;;;;;;;1.90;1.80;;;;;;;;;;5098618;28;20254;-64
2022/11/04 01:35:08;;;;;;;1.88;1.77;;;;;;;;;;5098616;28;20286;-64
2022/11/04 01:37:36;;;;;;;2.17;2.00;;;;;;;;;;5097488;28;20207;-64
2022/11/04 01:40:04;;;;;;;2.40;2.20;;;;;;;;;;5098264;28;20731;-63
2022/11/04 01:42:32;;;;;;;2.38;2.17;;;;;;;;;;5098832;28;20284;-64
2022/11/04 01:45:01;;;;;;;2.10;1.92;;;;;;;;;;5098581;28;20203;-64
2022/11/04 01:47:31;;;;;;;2.10;2.00;;;;;;;;;;5098313;28;20208;-64
2022/11/04 01:50:01;;;;;;;2.33;2.13;;;;;;;;;;5098548;28;20236;-64
2022/11/04 01:52:31;;;;;;;2.15;1.95;;;;;;;;;;5098101;28;20210;-64
2022/11/04 01:55:00;;;;;;;2.83;2.33;;;;;;;;;;5098449;28;20254;-64
2022/11/04 01:57:34;;;;;;;2.17;1.98;;;;;;;;;;5097540;28;20604;-64
2022/11/04 02:00:05;;;;;;;2.40;2.20;;;;;;;;;;5097879;28;20200;-65
2022/11/04 02:02:33;;;;;;;2.33;2.13;;;;;;;;;;5097851;28;20235;-64
2022/11/04 02:05:01;;;;;;;2.28;2.08;;;;;;;;;;5098190;28;20212;-64
2022/11/04 02:07:30;;;;;;;2.25;2.05;;;;;;;;;;5098248;28;20215;-64
2022/11/04 02:09:58;;;;;;;2.67;2.47;;;;;;;;;;5097913;28;20239;-63
2022/11/04 02:15:12;;;;;;;2.30;2.10;;;;;;;;;;5097776;28;20587;-64
2022/11/04 02:17:47;;;;;;;2.50;2.30;;;;;;;;;;5098341;28;20279;-64
2022/11/04 02:20:21;;;;;;;2.45;2.30;;;;;;;;;;5097797;28;20362;-64
2022/11/04 02:23:04;;;;;;;2.35;2.15;;;;;;;;;;5097993;28;20203;-64
2022/11/04 02:25:45;;;;;;;2.15;2.05;;;;;;;;;;5076083;28;20562;-64
2022/11/04 02:28:26;;;;;;;2.40;2.30;;;;;;;;;;5077400;28;20287;-64
2022/11/04 02:30:59;;;;;;;2.33;2.13;;;;;;;;;;5077849;28;20204;-64
2022/11/04 02:33:31;;;;;;;2.45;2.25;;;;;;;;;;5077958;28;20212;-64
2022/11/04 02:36:01;;;;;;;2.35;2.15;;;;;;;;;;5077179;28;20204;-64
2022/11/04 02:38:35;;;;;;;2.67;2.47;;;;;;;;;;5077596;28;20200;-64
2022/11/04 02:41:05;;;;;;;2.40;2.20;;;;;;;;;;5077461;28;20574;-63
2022/11/04 02:43:35;;;;;;;2.80;2.60;;;;;;;;;;5077505;28;20204;-64
2022/11/04 02:46:06;;;;;;;2.78;2.58;;;;;;;;;;5077414;28;20204;-63
2022/11/04 02:48:37;;;;;;;2.50;2.30;;;;;;;;;;5077472;28;20231;-63
2022/11/04 02:51:05;;;;;;;2.55;2.35;;;;;;;;;;5082242;28;20196;-63
2022/11/04 02:53:35;;;;;;;2.60;2.40;;;;;;;;;;5097371;28;20575;-64
2022/11/04 02:56:04;;;;;;;2.60;2.40;;;;;;;;;;5097343;28;20203;-65
2022/11/04 02:58:33;;;;;;;2.60;2.40;;;;;;;;;;5097419;28;20291;-65
2022/11/04 03:01:02;;;;;;;2.30;2.10;;;;;;;;;;5097278;28;20211;-63
2022/11/04 03:03:34;;;;;;;2.83;2.63;;;;;;;;;;5097727;28;20226;-64
2022/11/04 03:06:03;;;;;;;2.55;2.35;;;;;;;;;;5097399;28;20200;-64
2022/11/04 03:08:32;;;;;;;2.60;2.40;;;;;;;;;;5097337;28;20232;-64
2022/11/04 03:11:02;;;;;;;2.80;2.60;;;;;;;;;;5097521;28;20204;-63
2022/11/04 03:13:33;;;;;;;2.60;2.40;;;;;;;;;;5096757;28;20215;-64
2022/11/04 03:16:02;;;;;;;2.63;2.42;;;;;;;;;;5077062;28;20269;-63
2022/11/04 03:18:34;;;;;;;2.67;2.47;;;;;;;;;;5077103;28;20211;-64
2022/11/04 03:21:03;;;;;;;3.00;2.50;;;;;;;;;;5076924;28;20224;-64
2022/11/04 03:23:31;;;;;;;3.15;2.58;;;;;;;;;;5077072;28;20204;-64
2022/11/04 03:26:03;;;;;;;2.95;2.70;;;;;;;;;;5077030;28;20212;-64
2022/11/04 03:28:35;;;;;;;2.80;2.60;;;;;;;;;;5076860;28;20246;-63
2022/11/04 03:31:05;;;;;;;2.70;2.50;;;;;;;;;;5076996;28;20299;-63
2022/11/04 03:33:39;;;;;;;5.45;2.50;;;;;;;;;;5077034;28;20269;-64
2022/11/04 03:36:08;;;;;;;2.70;2.25;;;;;;;;;;5076866;28;20286;-64
2022/11/04 03:38:37;;;;;;;2.45;2.20;;;;;;;;;;5077206;28;20204;-64
2022/11/04 03:41:07;;;;;;;2.80;2.60;;;;;;;;;;5077756;28;20279;-63
2022/11/04 03:43:36;;;;;;;2.35;2.15;;;;;;;;;;5096886;28;20306;-64
2022/11/04 03:46:04;;;;;;;2.80;2.35;;;;;;;;;;5096630;28;20269;-64
2022/11/04 03:48:32;;;;;;;2.88;2.60;;;;;;;;;;5100366;28;20203;-62
2022/11/04 03:51:02;;;;;;;2.50;2.30;;;;;;;;;;5100262;28;20203;-64
2022/11/04 03:53:30;;;;;;;2.53;2.33;;;;;;;;;;5100324;28;20204;-64
2022/11/04 03:56:10;;;;;;;2.60;2.40;;;;;;;;;;5100837;28;20527;-64
2022/11/04 03:58:43;;;;;;;2.50;2.30;;;;;;;;;;5098964;28;20229;-64
2022/11/04 04:01:15;;;;;;;2.17;2.03;;;;;;;;;;5100139;28;20217;-64
2022/11/04 04:03:44;;;;;;;2.40;2.20;;;;;;;;;;5100477;28;20219;-65
2022/11/04 04:06:16;;;;;;;2.47;2.28;;;;;;;;;;5100365;28;20573;-65
2022/11/04 04:08:45;;;;;;;2.33;2.13;;;;;;;;;;5099208;28;20319;-65
2022/11/04 04:11:17;;;;;;;2.30;2.10;;;;;;;;;;5099667;28;20235;-64
2022/11/04 04:13:46;;;;;;;2.33;2.13;;;;;;;;;;5100085;28;20212;-64
2022/11/04 04:16:18;;;;;;;2.03;1.92;;;;;;;;;;5100071;28;20214;-64
2022/11/04 04:18:48;;;;;;;2.53;2.33;;;;;;;;;;5099838;28;20204;-64
2022/11/04 04:21:20;;;;;;;2.00;1.90;;;;;;;;;;5099850;28;20512;-64
2022/11/04 04:29:21;;;;;;;2.40;2.20;;;;;;;;;;5098831;28;20369;-64
2022/11/04 04:31:49;;;;;;;2.30;2.10;;;;;;;;;;5099835;28;20678;-64
2022/11/04 04:34:17;;;;;;;2.20;2.00;;;;;;;;;;5100068;28;20530;-64
2022/11/04 04:36:48;;;;;;;2.97;2.17;;;;;;;;;;5098720;28;20200;-64
2022/11/04 04:45:00;;;;;;;1.92;1.83;;;;;;;;;;5099130;28;20719;-64
2022/11/04 04:47:29;;;;;;;1.90;1.80;;;;;;;;;;5099324;28;20246;-64
2022/11/04 04:49:58;;;;;;;1.80;1.70;;;;;;;;;;5098884;28;20253;-64
2022/11/04 04:52:28;;;;;;;1.70;1.60;;;;;;;;;;5098689;28;20593;-64
2022/11/04 04:54:56;;;;;;;1.60;1.50;;;;;;;;;;5098763;28;20215;-64
2022/11/04 04:57:23;;;;;;;1.92;1.83;;;;;;;;;;5098562;28;20239;-64
2022/11/04 04:59:51;;;;;;;1.80;1.70;;;;;;;;;;5098444;28;20200;-64
2022/11/04 05:02:18;;;;;;;2.10;1.90;;;;;;;;;;5098761;28;20203;-64
2022/11/04 05:04:46;;;;;;;1.70;1.60;;;;;;;;;;5098218;28;20206;-64
2022/11/04 05:07:14;;;;;;;1.80;1.70;;;;;;;;;;5098550;28;20207;-64
2022/11/04 05:09:43;;;;;;;1.63;1.52;;;;;;;;;;5098569;28;20293;-64
2022/11/04 05:12:10;;;;;;;2.33;1.60;;;;;;;;;;5098148;28;20259;-64
2022/11/04 05:14:37;;;;;;;1.60;1.50;;;;;;;;;;5098512;28;20208;-64
2022/11/04 05:17:05;;;;;;;1.77;1.67;;;;;;;;;;5098411;28;20208;-64
2022/11/04 05:19:32;;;;;;;1.73;1.63;;;;;;;;;;5098139;28;20613;-64
2022/11/04 05:22:00;;;;;;;1.67;1.58;;;;;;;;;;5098209;28;20204;-64
2022/11/04 05:24:27;;;;;;;1.60;1.50;;;;;;;;;;5097581;28;20695;-64
2022/11/04 05:26:56;;;;;;;1.55;1.45;;;;;;;;;;5097916;28;20204;-64
2022/11/04 05:29:23;;;;;;;1.80;1.50;;;;;;;;;;5097207;28;20219;-64
2022/11/04 05:31:51;;;;;;;1.70;1.60;;;;;;;;;;5096786;28;20196;-64
2022/11/04 05:34:19;;;;;;;1.48;1.38;;;;;;;;;;5097642;28;20210;-64
2022/11/04 05:36:46;;;;;;;1.50;1.40;;;;;;;;;;5097527;28;20282;-64
2022/11/04 05:39:14;;;;;;;1.80;1.70;;;;;;;;;;5097161;28;20213;-64
2022/11/04 05:41:41;;;;;;;1.50;1.40;;;;;;;;;;5097164;28;20208;-64
2022/11/04 05:44:11;;;;;;;1.70;1.60;;;;;;;;;;5097099;28;20203;-65
2022/11/04 05:46:38;;;;;;;1.50;1.40;;;;;;;;;;5096471;28;20222;-64
2022/11/04 05:49:06;;;;;;;1.70;1.60;;;;;;;;;;5097091;28;20214;-64
2022/11/04 05:51:33;;;;;;;1.52;1.42;;;;;;;;;;5096402;28;20218;-64
2022/11/04 05:54:01;;;;;;;1.55;1.45;;;;;;;;;;5095864;28;20209;-64
2022/11/04 05:56:28;;;;;;;1.40;1.30;;;;;;;;;;5094988;28;20548;-64
2022/11/04 05:58:55;;;;;;;1.55;1.45;;;;;;;;;;5095658;28;20199;-64
2022/11/04 06:01:31;;;;;;;1.30;1.20;;;;;;;;;;5101703;28;20187;-64
2022/11/04 06:03:59;;;;;;;1.40;1.30;;;;;;;;;;5095746;28;20199;-64
2022/11/04 06:06:27;;;;;;;1.50;1.40;;;;;;;;;;5095060;28;20204;-64
2022/11/04 06:08:55;;;;;;;1.60;1.50;;;;;;;;;;5094665;28;20206;-64
2022/11/04 06:11:23;;;;;;;1.33;1.23;;;;;;;;;;5094565;28;20233;-64
2022/11/04 06:13:50;;;;;;;1.35;1.25;;;;;;;;;;5094945;28;20316;-64
2022/11/04 06:16:18;;;;;;;1.40;1.30;;;;;;;;;;5094211;28;20204;-64
2022/11/04 06:18:46;;;;;;;1.35;1.25;;;;;;;;;;5094484;28;20199;-64
2022/11/04 06:21:23;;;;;;;1.10;1.10;;;;;;;;;;5094291;28;20237;-64
2022/11/04 06:23:51;;;;;;;1.35;1.25;;;;;;;;;;5093897;28;20192;-65
2022/11/04 06:26:19;;;;;;;1.30;1.20;;;;;;;;;;5094819;28;20200;-65
2022/11/04 06:28:47;;;;;;;1.50;1.40;;;;;;;;;;5095080;28;20214;-65
2022/11/04 06:31:15;;;;;;;1.27;1.17;;;;;;;;;;5094081;28;20231;-64
2022/11/04 06:33:43;;;;;;;2.47;1.30;;;;;;;;;;5095502;28;20214;-65
2022/11/04 06:36:13;;;;;;;1.75;1.27;;;;;;;;;;5094226;28;20200;-64
2022/11/04 06:38:40;;;;;;;2.03;1.13;;;;;;;;;;5094286;28;20483;-64
2022/11/04 06:41:09;;;;;;;3.08;1.27;;;;;;;;;;5094585;28;20203;-64
2022/11/04 06:43:36;;;;;;;1.52;1.30;;;;;;;;;;5093670;28;20200;-64
2022/11/04 06:46:04;;;;;;;2.40;1.30;;;;;;;;;;5094059;28;20195;-64
2022/11/04 06:48:32;;;;;;;3.25;1.38;;;;;;;;;;5094516;28;20761;-64
2022/11/04 06:50:59;;;;;;;1.50;1.33;;;;;;;;;;5093573;28;20246;-64
2022/11/04 06:53:29;;;;;;;2.25;1.60;;;;;;;;;;5093551;28;20607;-64
2022/11/04 06:56:02;;;;;;;1.35;1.20;;;;;;;;;;5093832;28;20207;-64
2022/11/04 06:58:29;;;;;;;1.50;1.40;;;;;;;;;;5094245;28;20484;-64
2022/11/04 07:00:57;;;;;;;2.35;1.10;;;;;;;;;;5094511;28;20664;-64
2022/11/04 07:03:24;;;;;;;2.33;1.48;;;;;;;;;;5094841;28;20207;-64
2022/11/04 07:05:52;;;;;;;1.75;1.35;;;;;;;;;;5094919;28;20204;-64
2022/11/04 07:08:19;;;;;;;1.13;0.98;;;;;;;;;;5094957;28;20209;-64
2022/11/04 07:10:48;;;;;;;2.75;1.15;;;;;;;;;;5094842;28;20740;-65
2022/11/04 07:13:16;;;;;;;1.30;1.20;;;;;;;;;;5095033;28;20290;-64
2022/11/04 07:15:43;;;;;;;1.40;1.30;;;;;;;;;;5094200;28;20212;-65
2022/11/04 07:18:11;;;;;;;1.40;1.30;;;;;;;;;;5093359;28;20200;-64
2022/11/04 07:20:39;;;;;;;1.58;1.30;;;;;;;;;;5095633;28;20231;-65
2022/11/04 07:23:06;;;;;;;1.67;1.25;;;;;;;;;;5098063;28;20299;-64
2022/11/04 07:25:33;;;;;;;2.30;1.30;;;;;;;;;;5098100;28;20480;-64
2022/11/04 07:28:02;;;;;;;1.35;1.25;;;;;;;;;;5098508;28;20203;-65
2022/11/04 07:30:30;;;;;;;1.30;1.20;;;;;;;;;;5098058;28;20229;-65
2022/11/04 07:32:57;;;;;;;3.30;1.23;;;;;;;;;;5097797;28;20483;-65
2022/11/04 07:35:24;;;;;;;2.13;1.23;;;;;;;;;;5098298;28;20211;-65
2022/11/04 07:37:52;;;;;;;1.77;1.17;;;;;;;;;;5098072;28;20231;-65
2022/11/04 07:40:19;;;;;;;3.28;1.30;;;;;;;;;;5098541;28;20206;-64
2022/11/04 07:42:47;;;;;;;1.90;1.48;;;;;;;;;;5098429;28;20203;-64
2022/11/04 07:45:16;;;;;;;1.25;1.13;;;;;;;;;;5095175;28;20494;-64
2022/11/04 07:47:43;;;;;;;1.88;1.30;;;;;;;;;;5094658;28;20191;-64
2022/11/04 07:50:10;;;;;;;1.33;1.10;;;;;;;;;;5095788;28;20215;-65
2022/11/04 07:52:38;;;;;;;2.78;1.30;;;;;;;;;;5098009;28;20204;-64
2022/11/04 07:55:06;;;;;;;1.73;1.20;;;;;;;;;;5098088;28;20204;-64
2022/11/04 07:57:33;;;;;;;1.23;1.13;;;;;;;;;;5097389;28;20219;-65
2022/11/04 08:00:00;;;;;;;2.17;1.20;;;;;;;;;;5096821;28;20200;-65
2022/11/04 08:02:29;;;;;;;1.45;1.20;;;;;;;;;;5096810;28;20199;-65
2022/11/04 08:04:57;;;;;;;1.70;1.02;;;;;;;;;;5096969;28;20200;-65
2022/11/04 08:07:24;;;;;;;1.35;1.20;;;;;;;;;;5097138;28;20204;-64
2022/11/04 08:09:51;;;;;;;1.30;1.17;;;;;;;;;;5096638;28;20204;-65
2022/11/04 08:12:22;;;;;;;2.33;1.20;;;;;;;;;;5097661;28;20214;-66
2022/11/04 08:14:50;;;;;;;2.13;1.20;;;;;;;;;;5099027;28;20475;-64
2022/11/04 08:17:17;;;;;;;1.42;1.30;;;;;;;;;;5096277;28;20270;-64
2022/11/04 08:19:46;;;;;;;1.30;1.20;;;;;;;;;;5097945;28;20625;-64
2022/11/04 08:22:13;;;;;;;2.75;1.10;;;;;;;;;;5098061;28;20214;-65
2022/11/04 08:24:40;;;;;;;1.20;1.02;;;;;;;;;;5098367;28;20233;-64
2022/11/04 08:27:08;;;;;;;2.05;1.40;;;;;;;;;;5098198;28;20210;-64
2022/11/04 08:29:36;;;;;;;1.40;1.10;;;;;;;;;;5096208;28;20279;-64
2022/11/04 08:32:04;;;;;;;1.83;1.10;;;;;;;;;;5095515;28;20224;-65
2022/11/04 08:34:31;;;;;;;1.40;1.30;;;;;;;;;;5096976;28;20508;-65
2022/11/04 08:37:00;;;;;;;1.30;1.20;;;;;;;;;;5097446;28;20200;-64
2022/11/04 08:39:27;;;;;;;1.30;1.20;;;;;;;;;;5097076;28;20322;-65
2022/11/04 08:41:54;;;;;;;1.45;1.00;;;;;;;;;;5097160;28;20199;-64
2022/11/04 08:44:22;;;;;;;2.20;1.02;;;;;;;;;;5097353;28;20205;-64
2022/11/04 08:46:50;;;;;;;1.23;1.02;;;;;;;;;;5097643;28;20203;-65
2022/11/04 08:49:17;;;;;;;1.48;1.00;;;;;;;;;;5095685;28;20821;-65
2022/11/04 08:51:48;;;;;;;1.33;1.15;;;;;;;;;;5096469;28;20224;-64
2022/11/04 08:54:17;;;;;;;1.48;1.27;;;;;;;;;;5096491;28;20207;-65
2022/11/04 08:56:44;;;;;;;1.00;0.90;;;;;;;;;;5093980;28;20200;-64
2022/11/04 08:59:13;;;;;;;1.02;0.93;;;;;;;;;;5095539;28;20200;-64
2022/11/04 09:01:41;;;;;;;1.90;1.00;;;;;;;;;;5096450;28;20569;-65
2022/11/04 09:04:08;;;;;;;1.45;1.17;;;;;;;;;;5095548;28;20211;-64
2022/11/04 09:06:38;;;;;;;0.90;0.90;;;;;;;;;;5096190;28;20210;-64
2022/11/04 09:09:05;;;;;;;1.60;1.10;;;;;;;;;;5095950;28;20229;-64
2022/11/04 09:11:35;;;;;;;1.52;1.00;;;;;;;;;;5094385;28;20227;-65
2022/11/04 09:14:03;;;;;;;1.10;1.00;;;;;;;;;;5096950;28;20214;-64
2022/11/04 09:16:30;;;;;;;1.10;1.00;;;;;;;;;;5096299;28;20206;-64
2022/11/04 09:18:58;;;;;;;1.48;1.10;;;;;;;;;;5096988;28;20204;-65
2022/11/04 09:21:26;;;;;;;1.05;0.98;;;;;;;;;;5096005;28;20237;-65
2022/11/04 09:23:53;;;;;;;2.08;0.80;;;;;;;;;;5096337;28;20211;-64
2022/11/04 09:26:22;;;;;;;0.85;0.85;;;;;;;;;;5096107;28;20259;-65
2022/11/04 09:28:54;;;;;;;1.67;0.95;;;;;;;;;;5095696;28;20230;-65
2022/11/04 09:31:21;;;;;;;1.63;1.10;;;;;;;;;;5096284;28;20227;-65
2022/11/04 09:33:49;;;;;;;1.23;0.82;;;;;;;;;;5096753;28;20230;-65
2022/11/04 09:36:16;;;;;;;0.90;0.90;;;;;;;;;;5096478;28;20199;-65
2022/11/04 09:38:44;;;;;;;1.15;1.00;;;;;;;;;;5087712;28;20484;-64
2022/11/04 09:41:25;;;;;;;0.80;0.80;;;;;;;;;;5095625;28;20200;-64
2022/11/04 09:44:00;;;;;;;0.90;0.80;;;;;;;;;;5092744;28;20195;-64
2022/11/04 09:46:28;;;;;;;1.02;0.90;;;;;;;;;;5096034;28;20300;-65
2022/11/04 09:48:57;;;;;;;0.80;0.80;;;;;;;;;;5095954;28;20203;-65
2022/11/04 09:51:26;;;;;;;0.75;0.70;;;;;;;;;;5095946;28;20227;-64
2022/11/04 09:53:56;;;;;;;0.80;0.80;;;;;;;;;;5095930;28;20212;-64
2022/11/04 09:56:24;;;;;;;0.98;0.70;;;;;;;;;;5095246;28;20700;-64
2022/11/04 09:58:52;;;;;;;0.80;0.80;;;;;;;;;;5095728;28;20222;-64
2022/11/04 10:01:27;;;;;;;1.10;0.85;;;;;;;;;;5095634;28;20286;-64
2022/11/04 10:04:09;;;;;;;0.80;0.80;;;;;;;;;;5095228;28;20482;-64
2022/11/04 10:06:42;;;;;;;0.80;0.80;;;;;;;;;;5095120;28;20210;-64
2022/11/04 10:09:16;;;;;;;1.23;0.77;;;;;;;;;;5094573;28;20203;-64
2022/11/04 10:11:47;;;;;;;0.80;0.80;;;;;;;;;;5093461;28;20223;-64
2022/11/04 10:14:21;;;;;;;0.70;0.70;;;;;;;;;;5094372;28;20294;-64
2022/11/04 10:16:56;;;;;;;1.40;0.90;;;;;;;;;;5093913;28;20208;-64
2022/11/04 10:19:28;;;;;;;0.80;0.80;;;;;;;;;;5092762;28;20203;-64
2022/11/04 10:22:01;;;;;;;1.63;0.70;;;;;;;;;;5074194;28;20196;-64
2022/11/04 10:24:35;;;;;;;0.70;0.70;;;;;;;;;;5073651;28;20227;-64
2022/11/04 10:27:04;;;;;;;0.68;0.68;;;;;;;;;;5074407;28;20615;-64
2022/11/04 10:29:36;;;;;;;0.70;0.70;;;;;;;;;;5074879;28;20228;-64
2022/11/04 10:32:08;;;;;;;1.15;0.70;;;;;;;;;;5073365;28;20290;-64
2022/11/04 10:34:37;;;;;;;0.70;0.70;;;;;;;;;;5074596;28;20334;-64
2022/11/04 10:37:05;;;;;;;0.93;0.80;;;;;;;;;;5075710;28;20200;-65
2022/11/04 10:39:36;;;;;;;0.68;0.68;;;;;;;;;;5074549;28;20200;-64
2022/11/04 10:42:05;;;;;;;1.40;0.70;;;;;;;;;;5074670;28;20206;-64
2022/11/04 10:44:33;;;;;;;0.70;0.70;;;;;;;;;;5074816;28;20211;-64
2022/11/04 10:47:05;;;;;;;0.70;0.70;;;;;;;;;;5074612;28;20215;-64
2022/11/04 10:49:50;;;;;;;0.65;0.65;;;;;;;;;;5074096;28;20214;-64
2022/11/04 10:52:19;;;;;;;0.70;0.70;;;;;;;;;;5073429;28;20231;-64
2022/11/04 10:54:47;;;;;;;0.50;0.50;;;;;;;;;;5073788;28;20235;-64
2022/11/04 10:57:22;;;;;;;0.95;0.50;;;;;;;;;;5076983;28;20214;-65
2022/11/04 10:59:52;;;;;;;0.75;0.60;;;;;;;;;;5078641;28;20207;-63
2022/11/04 11:02:20;;;;;;;0.60;0.60;;;;;;;;;;5077727;28;20192;-63
2022/11/04 11:04:48;;;;;;;0.70;0.70;;;;;;;;;;5077854;28;20230;-63
2022/11/04 11:07:21;;;;;;;1.00;0.70;;;;;;;;;;5078234;28;20609;-63
2022/11/04 11:09:55;;;;;;;1.27;0.63;;;;;;;;;;5076381;28;20303;-64
2022/11/04 11:12:29;;;;;;;0.60;0.60;;;;;;;;;;5057332;28;20488;-64
2022/11/04 11:14:58;;;;;;;1.08;0.80;;;;;;;;;;5065081;28;20262;-64
2022/11/04 11:17:36;;;;;;;0.50;0.50;;;;;;;;;;5077392;28;20204;-63
2022/11/04 11:20:07;;;;;;;0.80;0.80;;;;;;;;;;5076632;28;20228;-64
2022/11/04 11:22:38;;;;;;;0.50;0.50;;;;;;;;;;5077430;28;20594;-64
2022/11/04 11:25:21;;;;;;;0.60;0.60;;;;;;;;;;5077288;28;20780;-65
2022/11/04 11:27:49;;;;;;;0.77;0.60;;;;;;;;;;5077861;28;20208;-64
2022/11/04 11:30:21;;;;;;;0.60;0.60;;;;;;;;;;5077230;28;20217;-65
2022/11/04 11:32:52;;;;;;;0.60;0.60;;;;;;;;;;5076799;28;20572;-63
2022/11/04 11:35:22;;;;;;;1.38;0.50;;;;;;;;;;5075831;28;20224;-63
2022/11/04 11:37:52;;;;;;;0.50;0.50;;;;;;;;;;5076576;28;20291;-64
2022/11/04 11:40:30;;;;;;;0.57;0.40;;;;;;;;;;5076730;28;20265;-64
2022/11/04 11:42:58;;;;;;;0.50;0.50;;;;;;;;;;5077553;28;20695;-64
2022/11/04 11:45:26;;;;;;;0.55;0.55;;;;;;;;;;5077661;28;20211;-64
2022/11/04 11:47:55;;;;;;;0.60;0.60;;;;;;;;;;5077278;28;20295;-65
2022/11/04 11:50:28;;;;;;;0.82;0.50;;;;;;;;;;5076709;28;20219;-65
2022/11/04 11:53:07;;;;;;;0.60;0.60;;;;;;;;;;5076748;28;20319;-65
2022/11/04 11:55:37;;;;;;;0.65;0.65;;;;;;;;;;5077176;28;20204;-63
2022/11/04 11:58:09;;;;;;;0.82;0.60;;;;;;;;;;5077924;28;20709;-64
2022/11/04 12:00:37;;;;;;;0.45;0.45;;;;;;;;;;5076995;28;20598;-64
2022/11/04 12:03:10;;;;;;;1.00;0.50;;;;;;;;;;5076481;28;20651;-64
2022/11/04 12:05:42;;;;;;;1.85;0.70;;;;;;;;;;5076477;28;20196;-64
2022/11/04 12:08:19;;;;;;;0.63;0.50;;;;;;;;;;5074472;28;20200;-64
2022/11/04 12:10:51;;;;;;;1.48;0.50;;;;;;;;;;5076030;28;20215;-64
2022/11/04 12:13:24;;;;;;;0.40;0.40;;;;;;;;;;5075686;28;20224;-64
2022/11/04 12:15:56;;;;;;;0.40;0.40;;;;;;;;;;5076619;28;20598;-64
2022/11/04 12:18:35;;;;;;;1.58;0.60;;;;;;;;;;5076811;28;20200;-64
2022/11/04 12:21:06;;;;;;;0.70;0.50;;;;;;;;;;5091186;28;20235;-65
2022/11/04 12:23:39;;;;;;;0.50;0.43;;;;;;;;;;5097088;28;20277;-63
2022/11/04 12:26:15;;;;;;;0.40;0.40;;;;;;;;;;5096084;28;20200;-63
2022/11/04 12:28:50;;;;;;;0.60;0.50;;;;;;;;;;5088002;28;20203;-64
2022/11/04 12:31:23;;;;;;;1.25;0.50;;;;;;;;;;5096882;28;20204;-64
2022/11/04 12:33:55;;;;;;;0.50;0.47;;;;;;;;;;5095826;28;20192;-64
2022/11/04 12:36:28;;;;;;;0.85;0.40;;;;;;;;;;5096125;28;20203;-64
2022/11/04 12:39:02;;;;;;;0.50;0.50;;;;;;;;;;5095295;28;20204;-65
2022/11/04 12:41:36;;;;;;;0.40;0.40;;;;;;;;;;5095091;28;20191;-65
2022/11/04 12:44:09;;;;;;;0.68;0.60;;;;;;;;;;5095173;28;20204;-63
2022/11/04 12:46:39;;;;;;;1.13;0.55;;;;;;;;;;5095633;28;20215;-65
2022/11/04 12:49:21;;;;;;;0.40;0.40;;;;;;;;;;5095429;28;20520;-64
2022/11/04 12:51:56;;;;;;;0.40;0.40;;;;;;;;;;5074743;28;20229;-65
2022/11/04 12:54:38;;;;;;;0.50;0.50;;;;;;;;;;5094480;28;20203;-65
2022/11/04 12:57:13;;;;;;;0.45;0.43;;;;;;;;;;5094814;28;20206;-65
2022/11/04 12:59:56;;;;;;;1.10;0.57;;;;;;;;;;5094525;28;20196;-65
2022/11/04 13:02:24;;;;;;;0.70;0.40;;;;;;;;;;5091459;28;20188;-64
2022/11/04 13:04:57;;;;;;;1.08;0.47;;;;;;;;;;5095772;28;20196;-65
2022/11/04 13:07:27;;;;;;;0.40;0.40;;;;;;;;;;5095090;28;20199;-63
2022/11/04 13:09:58;;;;;;;0.32;0.30;;;;;;;;;;5095569;28;20208;-64
2022/11/04 13:12:30;;;;;;;0.43;0.43;;;;;;;;;;5095261;28;20219;-65
2022/11/04 13:15:01;;;;;;;0.70;0.35;;;;;;;;;;5095446;28;20218;-64
2022/11/04 13:17:30;;;;;;;0.40;0.40;;;;;;;;;;5095108;28;20196;-64
2022/11/04 13:20:00;;;;;;;0.60;0.40;;;;;;;;;;5094579;28;20227;-65
2022/11/04 13:22:30;;;;;;;0.40;0.40;;;;;;;;;;5095092;28;20199;-65
2022/11/04 13:24:59;;;;;;;0.50;0.40;;;;;;;;;;5095614;28;20208;-65
2022/11/04 13:27:32;;;;;;;0.63;0.60;;;;;;;;;;5094250;28;20204;-64
2022/11/04 13:30:05;;;;;;;0.50;0.50;;;;;;;;;;5094326;28;20204;-63
2022/11/04 13:32:34;;;;;;;0.47;0.47;;;;;;;;;;5094825;28;20543;-64
2022/11/04 13:35:04;;;;;;;0.50;0.40;;;;;;;;;;5094639;28;20306;-63
2022/11/04 13:37:33;;;;;;;0.60;0.40;;;;;;;;;;5093807;28;20210;-64
2022/11/04 13:40:05;;;;;;;0.40;0.40;;;;;;;;;;5093613;28;20274;-65
2022/11/04 13:43:36;;;;;;;0.40;0.38;;;;;;;;;;5095015;28;20200;-65
2022/11/04 13:45:49;;;;;;;0.43;0.40;;;;;;;;;;5094343;28;20204;-65
2022/11/04 13:48:19;;;;;;;0.60;0.40;;;;;;;;;;5094759;28;20214;-65
2022/11/04 13:50:56;;;;;;;0.30;0.30;;;;;;;;;;5094101;28;20213;-65
2022/11/04 13:53:40;;;;;;;0.40;0.40;;;;;;;;;;5094182;28;20494;-66
2022/11/04 13:56:08;;;;;;;0.40;0.40;;;;;;;;;;5082554;28;20212;-64
2022/11/04 13:58:37;;;;;;;0.90;0.40;;;;;;;;;;5073820;28;20204;-65
2022/11/04 14:01:11;;;;;;;0.60;0.50;;;;;;;;;;5073453;28;20200;-65
2022/11/04 14:03:52;;;;;;;0.68;0.50;;;;;;;;;;5073306;28;20204;-65
2022/11/04 14:06:39;;;;;;;1.05;0.40;;;;;;;;;;5073863;28;20211;-64
2022/11/04 14:09:32;;;;;;;0.50;0.40;;;;;;;;;;5073974;28;20651;-63
2022/11/04 14:12:18;;;;;;;0.40;0.40;;;;;;;;;;5072874;28;20644;-64
2022/11/04 14:14:47;;;;;;;0.60;0.50;;;;;;;;;;5072804;28;20540;-63
2022/11/04 14:17:29;;;;;;;0.80;0.55;;;;;;;;;;5073609;28;20208;-65
2022/11/04 14:20:00;;;;;;;0.75;0.40;;;;;;;;;;5072978;28;20228;-65
2022/11/04 14:22:46;;;;;;;0.55;0.35;;;;;;;;;;5072861;28;20230;-64
2022/11/04 14:25:24;;;;;;;0.68;0.47;;;;;;;;;;5063850;28;20204;-63
2022/11/04 14:27:53;;;;;;;0.40;0.40;;;;;;;;;;5074180;28;20205;-65
2022/11/04 14:30:50;;;;;;;1.08;0.38;;;;;;;;;;5073375;28;20215;-65
2022/11/04 14:33:23;;;;;;;0.38;0.38;;;;;;;;;;5012343;28;20259;-65
2022/11/04 14:35:51;;;;;;;1.10;0.43;;;;;;;;;;5062604;28;20663;-65
2022/11/04 14:38:26;;;;;;;0.40;0.40;;;;;;;;;;5074360;28;20210;-63
2022/11/04 14:41:13;;;;;;;0.90;0.50;;;;;;;;;;5073810;28;20203;-65
2022/11/04 14:43:42;;;;;;;0.60;0.50;;;;;;;;;;5073980;28;20226;-63
2022/11/04 14:46:10;;;;;;;0.50;0.50;;;;;;;;;;5073811;28;20204;-65
2022/11/04 14:48:45;;;;;;;0.50;0.50;;;;;;;;;;5072915;28;20204;-65
2022/11/04 14:51:22;;;;;;;0.40;0.40;;;;;;;;;;5073454;28;20211;-64
2022/11/04 14:53:50;;;;;;;0.47;0.43;;;;;;;;;;5073617;28;20224;-64
2022/11/04 14:56:21;;;;;;;0.68;0.52;;;;;;;;;;5073851;28;20204;-63
2022/11/04 14:58:58;;;;;;;0.80;0.52;;;;;;;;;;5072756;28;20204;-63
2022/11/04 15:01:28;;;;;;;0.77;0.50;;;;;;;;;;5073629;28;20206;-63
2022/11/04 15:03:56;;;;;;;0.45;0.40;;;;;;;;;;5072940;28;20212;-63
2022/11/04 15:06:25;;;;;;;0.75;0.38;;;;;;;;;;5074106;28;20210;-64
2022/11/04 15:08:52;;;;;;;0.63;0.40;;;;;;;;;;5073583;28;20203;-63
2022/11/04 15:14:13;;;;;;;0.40;0.40;;;;;;;;;;5072846;28;20687;-64
2022/11/04 15:16:40;;;;;;;0.40;0.40;;;;;;;;;;5073405;28;20204;-65
2022/11/04 15:19:09;;;;;;;0.65;0.40;;;;;;;;;;5073524;28;20203;-64
2022/11/04 15:21:39;;;;;;;0.50;0.50;;;;;;;;;;5072285;28;20204;-64
2022/11/04 15:24:07;;;;;;;0.30;0.30;;;;;;;;;;5074130;28;20207;-65
2022/11/04 15:26:35;;;;;;;0.40;0.40;;;;;;;;;;5073876;28;20699;-64
2022/11/04 15:29:08;;;;;;;0.38;0.38;;;;;;;;;;5073189;28;20244;-64
2022/11/04 15:31:36;;;;;;;0.45;0.45;;;;;;;;;;5073048;28;20200;-63
2022/11/04 15:34:05;;;;;;;0.60;0.60;;;;;;;;;;5073780;28;20227;-63